Etusivu
METAR-TAF:

METAR-TAF

Lentoasemat :

Öljynporauslautta

P11-b, Alankomaat

Leveyspiiri: 52-21-36N, Pituuspiiri: 3-20-30E, korkeus merenpinnasta: 24 m

Tämänhetkinen sää

Tämä raportti tehtiin 20 minuuttia sitten, kello 04.25 UTC
Tuuli 13 kn lounaasta
Lämpötila 16°C
Kosteus 82%
Ilmanpaine 1027 hPa
Näkyvyys 10 km tai enemmän
Hajanaisia pilviä 1200 ft:n korkeudessa
Hajanaisia pilviä 4800 ft:n korkeudessa

METAR: EHPG 210425Z AUTO 22013KT 9999 SCT012 SCT048 16/13 Q1027 W///H///

Aika: 06:45 (04:45 UTC)


TAF: puuttuu

Säähavainnot ja -ennusteet yli 4000 lentoasemalta (METAR- ja TAF-raportit).

Käytössä olevat sääasemat on merkitty karttaan keltaisilla ja punaisilla pisteillä.

Aseta hiiri pisteen päälle nähdäksesi sääaseman nimen.

Klikkaa sitten nähdäksesi säähavainnot ja -ennusteet.

Kartan vaihtaminen: klikkaa mustalla rastilla varustettuja vihreitä pisteitä, niin voit zoomata sisään; viivalla varustettua vihreää pistettä, niin voit zoomata ulos tai vihreitä nuolia, niin pääset viereisille kartoille.


METAR-TAF: